createdAt,value
2024-05-09T00:00:01.913Z,86.7
2024-05-09T00:01:16.206Z,86.8
2024-05-09T00:02:30.498Z,86.2
2024-05-09T00:03:44.792Z,86.3
2024-05-09T00:04:59.084Z,86.8
2024-05-09T00:06:13.377Z,86.9
2024-05-09T00:07:27.670Z,86.8
2024-05-09T00:08:41.963Z,86.7
2024-05-09T00:11:10.548Z,86.7
2024-05-09T00:12:24.841Z,86.6
2024-05-09T00:13:39.134Z,86.6
2024-05-09T00:14:53.427Z,86.8
2024-05-09T00:16:07.720Z,86.9
2024-05-09T00:17:22.013Z,87.1
2024-05-09T00:18:36.306Z,87.4
2024-05-09T00:19:50.600Z,87.6
2024-05-09T00:21:04.892Z,87.5
2024-05-09T00:22:19.185Z,87.1
2024-05-09T00:23:33.479Z,87.2
2024-05-09T00:24:47.772Z,87.3
2024-05-09T00:26:02.064Z,87.3
2024-05-09T00:27:16.357Z,87.2
2024-05-09T00:28:30.650Z,87
2024-05-09T00:29:44.943Z,87.2
2024-05-09T00:30:59.236Z,86.9
2024-05-09T00:32:13.529Z,87.3
2024-05-09T00:33:27.822Z,87.7
2024-05-09T00:34:42.115Z,87.7
2024-05-09T00:35:56.408Z,87.5
2024-05-09T00:37:10.701Z,87.3
2024-05-09T00:38:24.994Z,87.7
2024-05-09T00:40:53.580Z,87.5
2024-05-09T00:42:07.873Z,87.4
2024-05-09T00:43:22.166Z,87.7
2024-05-09T00:44:36.459Z,87.7
2024-05-09T00:45:50.752Z,88.1
2024-05-09T00:47:05.045Z,89
2024-05-09T00:48:19.338Z,89.8
2024-05-09T00:49:33.631Z,90.5
2024-05-09T00:50:47.924Z,91.2
2024-05-09T00:52:02.217Z,91.8
2024-05-09T00:53:16.510Z,92.3
2024-05-09T00:54:30.803Z,92.6
2024-05-09T00:55:45.096Z,92.5
2024-05-09T00:56:59.390Z,92.5
2024-05-09T00:58:13.683Z,92.7
2024-05-09T00:59:27.975Z,93.3
2024-05-09T01:01:56.561Z,93.8
2024-05-09T01:03:10.854Z,94
2024-05-09T01:04:25.147Z,94.1
2024-05-09T01:05:39.440Z,94.2
2024-05-09T01:06:53.733Z,94.5
2024-05-09T01:08:08.026Z,94.2
2024-05-09T01:10:36.612Z,93.3
2024-05-09T01:11:50.905Z,92.8
2024-05-09T01:13:05.198Z,92.5
2024-05-09T01:14:19.491Z,92.1
2024-05-09T01:15:33.784Z,91.8
2024-05-09T01:16:48.076Z,91.3
2024-05-09T01:18:02.369Z,91.2
2024-05-09T01:19:16.662Z,91.2
2024-05-09T01:20:30.955Z,91.2
2024-05-09T01:21:45.248Z,91.3
2024-05-09T01:22:59.541Z,91.5
2024-05-09T01:25:28.127Z,91.7
2024-05-09T01:26:41.441Z,91.7
2024-05-09T01:27:54.750Z,91.6
2024-05-09T01:29:09.043Z,91.6
2024-05-09T01:30:23.336Z,91.6
2024-05-09T01:31:36.650Z,91.6
2024-05-09T01:32:50.943Z,91.5
2024-05-09T01:34:05.236Z,91.3
2024-05-09T01:35:19.528Z,90.9
2024-05-09T01:36:33.821Z,90.9
2024-05-09T01:37:48.114Z,90.8
2024-05-09T01:39:01.429Z,90.7
2024-05-09T01:40:14.738Z,90.7
2024-05-09T01:41:29.030Z,91
2024-05-09T01:42:43.323Z,91
2024-05-09T01:43:57.616Z,91.1
2024-05-09T01:45:11.909Z,91.6
2024-05-09T01:46:26.201Z,92.1
2024-05-09T01:47:40.494Z,92.3
2024-05-09T01:48:54.787Z,92.6
2024-05-09T01:50:09.080Z,92.9
2024-05-09T01:51:23.373Z,93.3
2024-05-09T01:52:37.666Z,93.7
2024-05-09T01:53:51.958Z,93.8
2024-05-09T01:55:06.251Z,93.7
2024-05-09T01:56:19.560Z,94.1
2024-05-09T01:57:33.853Z,94.3
2024-05-09T01:58:48.146Z,94.5
2024-05-09T02:00:02.439Z,94.5
2024-05-09T02:01:16.732Z,94.7
2024-05-09T02:02:31.026Z,94.8
2024-05-09T02:03:45.319Z,94.7
2024-05-09T02:04:59.612Z,94.4
2024-05-09T02:06:13.905Z,93.8
2024-05-09T02:07:28.198Z,93.4
2024-05-09T02:08:42.490Z,92.9
2024-05-09T02:09:56.784Z,92.7
2024-05-09T02:11:11.077Z,92.9
2024-05-09T02:12:24.386Z,92.5
2024-05-09T02:13:38.678Z,92.6
2024-05-09T02:14:52.971Z,92.9
2024-05-09T02:16:07.264Z,93.2
2024-05-09T02:17:21.557Z,93.3
2024-05-09T02:18:35.850Z,93.1
2024-05-09T02:19:50.144Z,93
2024-05-09T02:21:04.437Z,92.6
2024-05-09T02:22:18.730Z,92.2
2024-05-09T02:23:33.023Z,91.9
2024-05-09T02:24:47.316Z,91.5
2024-05-09T02:26:01.609Z,91.5
2024-05-09T02:27:15.902Z,92
2024-05-09T02:28:29.212Z,92.2
2024-05-09T02:29:43.505Z,92.1
2024-05-09T02:32:12.091Z,92.5
2024-05-09T02:33:26.384Z,92.6
2024-05-09T02:34:40.677Z,92.8
2024-05-09T02:35:54.970Z,92.8
2024-05-09T02:39:37.850Z,92.5
2024-05-09T02:40:51.164Z,92.5
2024-05-09T02:42:04.473Z,91.9
2024-05-09T02:43:18.766Z,91.3
2024-05-09T02:44:33.060Z,91.1
2024-05-09T02:45:47.353Z,90.8
2024-05-09T02:47:01.646Z,90.7
2024-05-09T02:48:15.940Z,91
2024-05-09T02:49:30.233Z,91
2024-05-09T02:50:44.472Z,91
2024-05-09T02:51:58.765Z,90.8
2024-05-09T02:53:12.080Z,90.7
2024-05-09T02:54:25.346Z,90.7
2024-05-09T02:55:39.585Z,90.9
2024-05-09T02:56:53.825Z,90.9
2024-05-09T02:58:08.118Z,90.8
2024-05-09T02:59:22.412Z,90.6
2024-05-09T03:00:36.662Z,90.4
2024-05-09T03:01:50.901Z,90.3
2024-05-09T03:03:05.140Z,90.4
2024-05-09T03:04:19.380Z,90.3
2024-05-09T03:05:33.619Z,90
2024-05-09T03:06:47.858Z,90
2024-05-09T03:08:02.097Z,90.3
2024-05-09T03:09:16.336Z,90.7
2024-05-09T03:10:30.697Z,91
2024-05-09T03:11:44.937Z,91.1
2024-05-09T03:12:59.176Z,91.3
2024-05-09T03:14:13.416Z,91
2024-05-09T03:15:27.655Z,90.7
2024-05-09T03:16:41.894Z,90.7
2024-05-09T03:17:56.133Z,90.7
2024-05-09T03:19:10.372Z,91.2
2024-05-09T03:20:24.611Z,91.1
2024-05-09T03:21:38.851Z,91
2024-05-09T03:24:07.329Z,91.5
2024-05-09T03:25:21.568Z,91.7
2024-05-09T03:26:34.824Z,92.1
2024-05-09T03:27:49.063Z,92.2
2024-05-09T03:29:03.302Z,92.1
2024-05-09T03:30:17.541Z,92.2
2024-05-09T03:31:31.780Z,92.4
2024-05-09T03:32:46.020Z,92.7
2024-05-09T03:34:00.259Z,93
2024-05-09T03:35:14.498Z,93.3
2024-05-09T03:36:28.737Z,93.4
2024-05-09T03:37:42.976Z,93.8
2024-05-09T03:38:57.216Z,94.1
2024-05-09T03:40:11.454Z,94.2
2024-05-09T03:41:25.693Z,94.4
2024-05-09T03:42:38.949Z,94.2
2024-05-09T03:43:53.188Z,94
2024-05-09T03:45:07.428Z,93.8
2024-05-09T03:46:21.667Z,93.6
2024-05-09T03:47:35.906Z,93.5
2024-05-09T03:48:50.146Z,93.3
2024-05-09T03:50:04.385Z,93.4
2024-05-09T03:51:18.624Z,93.6
2024-05-09T03:53:47.102Z,93.8
2024-05-09T03:55:01.341Z,93.7
2024-05-09T03:56:15.581Z,93.2
2024-05-09T03:57:29.820Z,92.9
2024-05-09T03:58:43.075Z,93
2024-05-09T03:59:57.314Z,92.9
2024-05-09T04:01:11.554Z,92.6
2024-05-09T04:02:25.793Z,92.9
2024-05-09T04:03:40.032Z,93.3
2024-05-09T04:04:54.271Z,94.1
2024-05-09T04:06:08.510Z,94.6
2024-05-09T04:07:22.750Z,95.1
2024-05-09T04:08:36.989Z,95.5
2024-05-09T04:09:51.228Z,95.7
2024-05-09T04:11:05.468Z,95.8
2024-05-09T04:12:19.707Z,96.1
2024-05-09T04:13:33.946Z,95.9
2024-05-09T04:14:47.202Z,95.5
2024-05-09T04:16:01.441Z,95.5
2024-05-09T04:17:15.680Z,94.8
2024-05-09T04:18:29.919Z,94.2
2024-05-09T04:19:44.159Z,93.5
2024-05-09T04:20:58.398Z,93.2
2024-05-09T04:22:12.637Z,93.1
2024-05-09T04:23:26.877Z,93.3
2024-05-09T04:24:41.115Z,93.2
2024-05-09T04:25:55.355Z,92.8
2024-05-09T04:27:09.594Z,92.1
2024-05-09T04:28:23.833Z,92
2024-05-09T04:29:38.072Z,91.6
2024-05-09T04:30:51.327Z,91.5
2024-05-09T04:32:05.566Z,91.8
2024-05-09T04:33:19.807Z,92
2024-05-09T04:34:34.046Z,91.9
2024-05-09T04:35:48.285Z,91.8
2024-05-09T04:37:02.524Z,92.1
2024-05-09T04:38:16.763Z,92
2024-05-09T04:39:31.002Z,91.7
2024-05-09T04:40:45.241Z,91.5
2024-05-09T04:41:59.480Z,90.9
2024-05-09T04:43:13.719Z,90.7
2024-05-09T04:44:27.958Z,91
2024-05-09T04:45:42.197Z,91.4
2024-05-09T04:46:55.452Z,90.5
2024-05-09T04:48:09.691Z,90.2
2024-05-09T04:49:23.930Z,90
2024-05-09T04:50:38.170Z,90.3
2024-05-09T04:51:52.409Z,90.2
2024-05-09T04:53:06.648Z,90.7
2024-05-09T04:54:20.887Z,91.2
2024-05-09T04:55:35.126Z,91.6
2024-05-09T04:56:49.366Z,92
2024-05-09T04:58:03.605Z,92.3
2024-05-09T04:59:17.844Z,92.3
2024-05-09T05:00:32.083Z,92.3
2024-05-09T05:01:46.321Z,92.3
2024-05-09T05:02:59.576Z,91.9
2024-05-09T05:04:13.815Z,91.2
2024-05-09T05:05:28.054Z,90.8
2024-05-09T05:06:42.293Z,90.6
2024-05-09T05:07:56.532Z,91.1
2024-05-09T05:09:10.771Z,90.7
2024-05-09T05:10:25.010Z,90.6
2024-05-09T05:11:39.249Z,90.6
2024-05-09T05:12:53.487Z,91.1
2024-05-09T05:15:21.965Z,90.8
2024-05-09T05:17:50.443Z,90.5
2024-05-09T05:19:03.698Z,90.9
2024-05-09T05:20:17.937Z,90.1
2024-05-09T05:21:32.176Z,89.8
2024-05-09T05:22:46.415Z,89.8
2024-05-09T05:24:00.654Z,89.8
2024-05-09T05:25:14.892Z,90
2024-05-09T05:26:29.133Z,89.8
2024-05-09T05:27:43.371Z,89.9
2024-05-09T05:28:57.610Z,89.8
2024-05-09T05:30:11.849Z,89.3
2024-05-09T05:31:26.088Z,88.3
2024-05-09T05:32:40.327Z,86
2024-05-09T05:33:54.565Z,83.9
2024-05-09T05:35:07.821Z,81.2
2024-05-09T05:36:22.060Z,79.3
2024-05-09T05:37:36.299Z,78.2
2024-05-09T05:38:50.538Z,77.2
2024-05-09T05:40:03.798Z,76.6
2024-05-09T05:41:18.037Z,75.8
2024-05-09T05:42:32.276Z,74.2
2024-05-09T05:43:46.515Z,74.5
2024-05-09T05:45:00.754Z,72.8
2024-05-09T05:46:14.993Z,72.8
2024-05-09T05:47:29.232Z,73
2024-05-09T05:48:43.471Z,73
2024-05-09T05:49:57.710Z,72.8
2024-05-09T05:51:11.949Z,72.5
2024-05-09T05:52:26.188Z,71.7
2024-05-09T05:53:40.427Z,71.1
2024-05-09T05:54:54.666Z,71.7
2024-05-09T05:56:07.921Z,73.2
2024-05-09T05:57:22.160Z,74.4
2024-05-09T05:58:36.399Z,75.6
2024-05-09T05:59:50.638Z,76.2
2024-05-09T06:01:04.877Z,76.6
2024-05-09T06:02:19.116Z,76.8
2024-05-09T06:03:33.355Z,77.1
2024-05-09T06:04:47.594Z,78.3
2024-05-09T06:06:01.833Z,79
2024-05-09T06:07:16.072Z,78.5
2024-05-09T06:08:30.311Z,78.5
2024-05-09T06:09:44.550Z,79.1
2024-05-09T06:10:58.789Z,78.6
2024-05-09T06:12:12.045Z,78.5
2024-05-09T06:14:40.523Z,78.6
2024-05-09T06:15:54.762Z,78.7
2024-05-09T06:17:09.001Z,78.4
2024-05-09T06:18:23.240Z,77.2
2024-05-09T06:19:37.479Z,76.7
2024-05-09T06:20:51.718Z,77.1
2024-05-09T06:22:05.957Z,76.3
2024-05-09T06:23:20.196Z,76.8
2024-05-09T06:24:34.435Z,78.5
2024-05-09T06:25:48.674Z,78.7
2024-05-09T06:27:02.913Z,78
2024-05-09T06:28:16.168Z,77.8
2024-05-09T06:29:30.407Z,77.2
2024-05-09T06:30:44.646Z,76.4
2024-05-09T06:31:58.886Z,77.2
2024-05-09T06:33:13.125Z,75.8
2024-05-09T06:34:27.364Z,73.9
2024-05-09T06:35:41.603Z,75.1
2024-05-09T06:36:55.842Z,75.7
2024-05-09T06:38:10.081Z,75.4
2024-05-09T06:39:24.320Z,74.2
2024-05-09T06:40:38.559Z,73.9
2024-05-09T06:41:52.798Z,72.9
2024-05-09T06:43:07.037Z,72.5
2024-05-09T06:44:20.292Z,71.7
2024-05-09T06:45:34.531Z,70.8
2024-05-09T06:46:48.770Z,68.9
2024-05-09T06:48:03.009Z,69.3
2024-05-09T06:49:17.248Z,70
2024-05-09T06:50:31.487Z,68.7
2024-05-09T06:51:45.726Z,67.6
2024-05-09T06:52:59.966Z,68
2024-05-09T06:54:14.205Z,68.4
2024-05-09T06:55:28.444Z,68.1
2024-05-09T06:56:42.682Z,68.4
2024-05-09T06:57:56.921Z,66.9
2024-05-09T06:59:11.160Z,68.4
2024-05-09T07:00:24.415Z,66.9
2024-05-09T07:01:38.654Z,67.1
2024-05-09T07:02:52.892Z,66.4
2024-05-09T07:04:07.131Z,66.1
2024-05-09T07:05:21.370Z,66
2024-05-09T07:06:35.609Z,64.8
2024-05-09T07:07:49.847Z,64.5
2024-05-09T07:09:04.086Z,63.7
2024-05-09T07:10:18.324Z,63.1
2024-05-09T07:11:32.563Z,62.2
2024-05-09T07:12:46.802Z,61.9
2024-05-09T07:14:01.041Z,62.2
2024-05-09T07:15:15.279Z,62.1
2024-05-09T07:16:28.534Z,63.9
2024-05-09T07:17:42.772Z,63.1
2024-05-09T07:18:57.011Z,63.8
2024-05-09T07:21:25.487Z,61.6
2024-05-09T07:22:39.726Z,63.2
2024-05-09T07:23:53.964Z,61.6
2024-05-09T07:25:08.202Z,61
2024-05-09T07:26:22.441Z,63.1
2024-05-09T07:27:36.679Z,61.5
2024-05-09T07:28:50.917Z,60.2
2024-05-09T07:30:05.156Z,60.9
2024-05-09T07:31:19.394Z,63.9
2024-05-09T07:32:32.648Z,61.5
2024-05-09T07:33:46.887Z,61
2024-05-09T07:35:01.125Z,61.6
2024-05-09T07:36:15.364Z,59.6
2024-05-09T07:37:29.602Z,60.3
2024-05-09T07:38:43.840Z,60.5
2024-05-09T07:39:58.079Z,61.8
2024-05-09T07:41:12.317Z,60.9
2024-05-09T07:42:26.555Z,62.2
2024-05-09T07:43:40.794Z,61.9
2024-05-09T07:44:55.032Z,60.9
2024-05-09T07:46:09.271Z,61.1
2024-05-09T07:47:23.509Z,59
2024-05-09T07:48:36.764Z,60.9
2024-05-09T07:49:51.002Z,60
2024-05-09T07:51:05.240Z,57.3
2024-05-09T07:52:19.479Z,58
2024-05-09T07:53:33.717Z,57.4
2024-05-09T07:54:47.956Z,57.7
2024-05-09T07:56:02.194Z,55.3
2024-05-09T07:57:16.433Z,56.3
2024-05-09T07:58:30.671Z,58.2
2024-05-09T07:59:44.909Z,55
2024-05-09T08:00:59.148Z,53.9
2024-05-09T08:02:13.386Z,53.4
2024-05-09T08:03:27.625Z,54
2024-05-09T08:04:40.880Z,52.2
2024-05-09T08:05:55.118Z,51.2
2024-05-09T08:07:09.357Z,51.8
2024-05-09T08:08:23.596Z,50.8
2024-05-09T08:09:37.834Z,51.8
2024-05-09T08:10:52.073Z,50.5
2024-05-09T08:13:20.550Z,51.3
2024-05-09T08:14:34.788Z,50.9
2024-05-09T08:15:49.026Z,45.7
2024-05-09T08:17:03.265Z,48.5
2024-05-09T08:18:17.504Z,48.3
2024-05-09T08:19:31.743Z,47.1
2024-05-09T08:20:44.997Z,49.8
2024-05-09T08:21:59.236Z,47
2024-05-09T08:23:13.475Z,47
2024-05-09T08:24:27.713Z,47
2024-05-09T08:25:41.952Z,47.2
2024-05-09T08:28:10.429Z,45.4
2024-05-09T08:29:24.668Z,46.7
2024-05-09T08:30:38.907Z,49.1
2024-05-09T08:31:53.146Z,49.1
2024-05-09T08:33:07.384Z,46.6
2024-05-09T08:34:21.623Z,45.8
2024-05-09T08:35:35.863Z,44.4
2024-05-09T08:36:49.118Z,42.5
2024-05-09T08:38:03.356Z,44.5
2024-05-09T08:39:17.595Z,42.6
2024-05-09T08:40:31.835Z,44.5
2024-05-09T08:41:46.073Z,43
2024-05-09T08:43:00.312Z,44.1
2024-05-09T08:45:28.790Z,44
2024-05-09T08:46:43.029Z,43.8
2024-05-09T08:47:57.268Z,42.9
2024-05-09T08:49:11.506Z,44
2024-05-09T08:50:25.745Z,43.5
2024-05-09T08:51:39.984Z,42.9
2024-05-09T08:52:53.239Z,42.9
2024-05-09T08:54:07.478Z,44.5
2024-05-09T08:55:21.717Z,41
2024-05-09T08:56:35.955Z,41.4
2024-05-09T08:57:50.194Z,43
2024-05-09T08:59:04.433Z,42.2
2024-05-09T09:00:18.672Z,42.8
2024-05-09T09:01:32.911Z,42.8
2024-05-09T09:02:47.150Z,39.4
2024-05-09T09:04:01.388Z,39.8
2024-05-09T09:05:15.627Z,39.7
2024-05-09T09:06:29.866Z,41.3
2024-05-09T09:07:44.104Z,40.7
2024-05-09T09:08:57.359Z,40.1
2024-05-09T09:10:11.598Z,39.7
2024-05-09T09:11:25.837Z,42.8
2024-05-09T09:12:40.075Z,42.3
2024-05-09T09:13:54.314Z,39.4
2024-05-09T09:15:08.552Z,40.5
2024-05-09T09:16:22.790Z,41
2024-05-09T09:17:37.029Z,39.5
2024-05-09T09:18:51.267Z,38.5
2024-05-09T09:20:05.505Z,40.4
2024-05-09T09:21:19.744Z,40.4
2024-05-09T09:22:33.982Z,39.4
2024-05-09T09:23:48.221Z,39.8
2024-05-09T09:25:01.475Z,41.9
2024-05-09T09:26:15.713Z,40.3
2024-05-09T09:27:29.953Z,40.9
2024-05-09T09:28:44.191Z,41.6
2024-05-09T09:29:58.429Z,41.9
2024-05-09T09:31:12.668Z,40.5
2024-05-09T09:33:41.145Z,41
2024-05-09T09:34:55.383Z,42.1
2024-05-09T09:36:09.622Z,40.9
2024-05-09T09:37:23.860Z,41.5
2024-05-09T09:38:38.098Z,38.9
2024-05-09T09:39:52.337Z,42.3
2024-05-09T09:41:05.592Z,40.3
2024-05-09T09:42:19.830Z,44.5
2024-05-09T09:43:34.068Z,37.5
2024-05-09T09:44:48.307Z,37.4
2024-05-09T09:46:02.546Z,36.4
2024-05-09T09:47:16.784Z,37.6
2024-05-09T09:48:30.044Z,37.3
2024-05-09T09:49:44.282Z,36.6
2024-05-09T09:50:58.521Z,39.4
2024-05-09T09:52:12.759Z,38.4
2024-05-09T09:53:26.998Z,38.1
2024-05-09T09:54:41.236Z,37.8
2024-05-09T09:55:55.475Z,42.4
2024-05-09T09:57:09.713Z,40.2
2024-05-09T09:58:23.952Z,36.4
2024-05-09T09:59:38.190Z,36.8
2024-05-09T10:00:52.428Z,37.1
2024-05-09T10:02:06.667Z,38.9
2024-05-09T10:03:20.905Z,38.6
2024-05-09T10:04:34.160Z,42.2
2024-05-09T10:05:48.398Z,40.5
2024-05-09T10:07:02.637Z,40.8
2024-05-09T10:08:16.876Z,36.1
2024-05-09T10:09:31.114Z,35.3
2024-05-09T10:11:59.591Z,35.1
2024-05-09T10:13:13.829Z,38.8
2024-05-09T10:14:28.068Z,38.4
2024-05-09T10:15:42.306Z,37.9
2024-05-09T10:16:56.545Z,39.2
2024-05-09T10:18:10.784Z,37.9
2024-05-09T10:19:25.022Z,38.2
2024-05-09T10:20:38.277Z,36.5
2024-05-09T10:21:52.516Z,36.7
2024-05-09T10:23:06.755Z,36.1
2024-05-09T10:24:20.993Z,34.1
2024-05-09T10:26:49.471Z,36.7
2024-05-09T10:28:03.710Z,39.2
2024-05-09T10:29:17.948Z,42.1
2024-05-09T10:30:32.187Z,43
2024-05-09T10:31:46.426Z,40.5
2024-05-09T10:33:00.664Z,36.7
2024-05-09T10:34:14.903Z,40.3
2024-05-09T10:35:29.141Z,36
2024-05-09T10:36:42.396Z,35.9
2024-05-09T10:37:56.635Z,37.4
2024-05-09T10:39:10.873Z,37.7
2024-05-09T10:40:25.112Z,38.6
2024-05-09T10:41:39.351Z,40.2
2024-05-09T10:42:53.589Z,34.4
2024-05-09T10:44:07.828Z,34.9
2024-05-09T10:45:22.066Z,34.1
2024-05-09T10:46:36.305Z,35.8
2024-05-09T10:47:50.543Z,36
2024-05-09T10:49:04.782Z,36
2024-05-09T10:51:33.260Z,37
2024-05-09T10:52:46.514Z,37.3
2024-05-09T10:54:00.753Z,36.7
2024-05-09T10:55:14.991Z,37.9
2024-05-09T10:56:29.230Z,35.8
2024-05-09T10:57:43.468Z,35.8
2024-05-09T10:58:57.707Z,37.7
2024-05-09T11:00:11.946Z,36.4
2024-05-09T11:01:26.184Z,36.6
2024-05-09T11:03:54.661Z,34.7
2024-05-09T11:05:08.900Z,36.5
2024-05-09T11:06:23.138Z,36.6
2024-05-09T11:07:37.377Z,37.8
2024-05-09T11:08:50.631Z,39.5
2024-05-09T11:10:04.870Z,36
2024-05-09T11:11:19.109Z,34.9
2024-05-09T11:12:33.347Z,37
2024-05-09T11:13:47.586Z,37.5
2024-05-09T11:15:01.824Z,37.1
2024-05-09T11:16:16.063Z,36.8
2024-05-09T11:18:44.540Z,36
2024-05-09T11:19:58.778Z,36.7
2024-05-09T11:21:13.017Z,34.9
2024-05-09T11:22:27.255Z,35.5
2024-05-09T11:23:41.494Z,36.9
2024-05-09T11:24:54.749Z,37.3
2024-05-09T11:26:08.987Z,38
2024-05-09T11:27:23.226Z,38
2024-05-09T11:28:37.464Z,34.6
2024-05-09T11:29:51.703Z,35.4
2024-05-09T11:31:05.942Z,35.2
2024-05-09T11:32:20.181Z,34.5
2024-05-09T11:33:34.419Z,34.6
2024-05-09T11:34:48.658Z,33.9
2024-05-09T11:36:02.897Z,36
2024-05-09T11:37:17.136Z,35.3
2024-05-09T11:39:45.614Z,34
2024-05-09T11:40:58.869Z,34.2
2024-05-09T11:42:13.107Z,34.9
2024-05-09T11:43:27.347Z,35.2
2024-05-09T11:44:41.585Z,38.1
2024-05-09T11:45:55.824Z,39.1
2024-05-09T11:48:24.302Z,42.8
2024-05-09T11:49:38.541Z,38.3
2024-05-09T11:50:52.779Z,40.4
2024-05-09T11:52:07.018Z,38.4
2024-05-09T11:53:21.257Z,35.7
2024-05-09T11:54:35.496Z,37.2
2024-05-09T11:55:49.735Z,38.6
2024-05-09T11:57:02.989Z,40.3
2024-05-09T11:58:17.228Z,41.3
2024-05-09T11:59:31.467Z,41.6
2024-05-09T12:00:45.705Z,40.9
2024-05-09T12:03:14.182Z,41.2
2024-05-09T12:04:27.442Z,42.9
2024-05-09T12:05:40.707Z,43.1
2024-05-09T12:06:54.946Z,42.4
2024-05-09T12:08:09.185Z,43
2024-05-09T12:09:23.423Z,41.7
2024-05-09T12:10:37.662Z,41.6
2024-05-09T12:11:51.900Z,41.5
2024-05-09T12:13:06.138Z,42.3
2024-05-09T12:14:20.377Z,41.9
2024-05-09T12:15:34.615Z,41
2024-05-09T12:16:47.875Z,44.1
2024-05-09T12:18:01.129Z,42.3
2024-05-09T12:19:15.379Z,40.7
2024-05-09T12:20:29.618Z,39.5
2024-05-09T12:21:43.856Z,41.9
2024-05-09T12:22:58.094Z,40.8
2024-05-09T12:24:12.333Z,38.1
2024-05-09T12:25:26.571Z,36
2024-05-09T12:26:40.810Z,36.7
2024-05-09T12:27:55.048Z,37.6
2024-05-09T12:29:09.287Z,37.6
2024-05-09T12:30:23.525Z,37.3
2024-05-09T12:31:37.764Z,38.1
2024-05-09T12:32:52.002Z,38.5
2024-05-09T12:34:05.257Z,39
2024-05-09T12:35:19.496Z,39.6
2024-05-09T12:36:33.734Z,41
2024-05-09T12:37:47.972Z,41.3
2024-05-09T12:39:02.211Z,41.6
2024-05-09T12:40:16.450Z,43.9
2024-05-09T12:41:30.688Z,42
2024-05-09T12:42:44.938Z,43.2
2024-05-09T12:43:59.176Z,40.8
2024-05-09T12:45:13.414Z,39.9
2024-05-09T12:46:27.653Z,39.5
2024-05-09T12:47:41.891Z,38.2
2024-05-09T12:48:56.130Z,38.4
2024-05-09T12:50:09.384Z,38.8
2024-05-09T12:51:23.623Z,39.4
2024-05-09T12:52:37.862Z,40.7
2024-05-09T12:53:52.101Z,41.5
2024-05-09T12:55:06.340Z,39
2024-05-09T12:56:20.578Z,39.4
2024-05-09T12:57:34.816Z,40.3
2024-05-09T12:58:49.055Z,41.8
2024-05-09T13:00:03.293Z,43.2
2024-05-09T13:01:17.532Z,42.1
2024-05-09T13:02:31.770Z,41.3
2024-05-09T13:03:46.008Z,41.2
2024-05-09T13:05:00.247Z,41.1
2024-05-09T13:06:13.501Z,44.1
2024-05-09T13:07:27.741Z,42.3
2024-05-09T13:08:41.979Z,42.2
2024-05-09T13:09:56.218Z,42.3
2024-05-09T13:11:10.456Z,41.4
2024-05-09T13:12:24.695Z,41
2024-05-09T13:13:38.933Z,42.5
2024-05-09T13:14:53.171Z,42.7
2024-05-09T13:16:07.410Z,43.1
2024-05-09T13:17:21.649Z,43.7
2024-05-09T13:18:35.887Z,44.8
2024-05-09T13:19:50.126Z,42.1
2024-05-09T13:21:04.365Z,42.7
2024-05-09T13:22:17.620Z,41.9
2024-05-09T13:23:31.859Z,40.8
2024-05-09T13:24:46.098Z,40
2024-05-09T13:26:00.336Z,41.4
2024-05-09T13:27:14.575Z,42
2024-05-09T13:28:28.814Z,44.3
2024-05-09T13:29:43.053Z,44.4
2024-05-09T13:30:57.292Z,43.2
2024-05-09T13:32:11.530Z,44
2024-05-09T13:33:25.770Z,42.7
2024-05-09T13:34:40.008Z,42.9
2024-05-09T13:35:54.247Z,42.2
2024-05-09T13:37:08.486Z,42.9
2024-05-09T13:38:21.741Z,43
2024-05-09T13:39:35.980Z,44.4
2024-05-09T13:40:50.219Z,41.2
2024-05-09T13:42:04.458Z,43.1
2024-05-09T13:43:18.697Z,43.9
2024-05-09T13:44:32.936Z,42.5
2024-05-09T13:45:47.174Z,42.9
2024-05-09T13:47:01.413Z,42.5
2024-05-09T13:48:15.652Z,43
2024-05-09T13:49:29.891Z,43.1
2024-05-09T13:50:44.129Z,41.4
2024-05-09T13:51:58.368Z,43
2024-05-09T13:53:12.607Z,42.6
2024-05-09T13:54:25.862Z,45.1
2024-05-09T13:55:40.101Z,44.5
2024-05-09T13:56:53.361Z,43.7
2024-05-09T13:58:07.600Z,43.8
2024-05-09T13:59:21.839Z,44.4
2024-05-09T14:01:50.316Z,44.9
2024-05-09T14:03:04.555Z,46.4
2024-05-09T14:04:18.795Z,45
2024-05-09T14:05:33.034Z,43.7
2024-05-09T14:06:47.273Z,44.1
2024-05-09T14:08:01.512Z,43.3
2024-05-09T14:09:15.751Z,43.7
2024-05-09T14:10:29.990Z,42.9
2024-05-09T14:11:44.229Z,43.3
2024-05-09T14:12:57.484Z,41.8
2024-05-09T14:14:11.723Z,43.5
2024-05-09T14:15:25.962Z,42.6
2024-05-09T14:16:40.201Z,41.9
2024-05-09T14:17:54.440Z,44.3
2024-05-09T14:19:08.679Z,42.4
2024-05-09T14:20:22.917Z,42.4
2024-05-09T14:21:37.156Z,43.3
2024-05-09T14:22:51.395Z,41.3
2024-05-09T14:24:05.635Z,43.5
2024-05-09T14:25:19.874Z,43.8
2024-05-09T14:26:34.113Z,44.8
2024-05-09T14:27:48.352Z,44
2024-05-09T14:29:01.607Z,44.4
2024-05-09T14:30:15.846Z,44.5
2024-05-09T14:31:30.085Z,43.5
2024-05-09T14:32:44.324Z,46.4
2024-05-09T14:33:58.562Z,41.5
2024-05-09T14:35:12.801Z,44.3
2024-05-09T14:36:27.040Z,43.5
2024-05-09T14:37:41.279Z,42.6
2024-05-09T14:38:55.519Z,42.6
2024-05-09T14:40:09.757Z,42
2024-05-09T14:41:23.996Z,43.1
2024-05-09T14:42:38.235Z,43.8
2024-05-09T14:43:52.474Z,42.6
2024-05-09T14:45:05.729Z,41.8
2024-05-09T14:46:19.968Z,43
2024-05-09T14:47:34.206Z,45.5
2024-05-09T14:48:48.445Z,44.4
2024-05-09T14:50:02.685Z,45.3
2024-05-09T14:51:16.923Z,45.7
2024-05-09T14:52:31.162Z,46
2024-05-09T14:53:45.401Z,45.1
2024-05-09T14:54:59.640Z,44.8
2024-05-09T14:56:13.879Z,43.3
2024-05-09T14:57:28.118Z,45.3
2024-05-09T14:58:42.357Z,45
2024-05-09T14:59:56.596Z,45.7
2024-05-09T15:01:09.851Z,44
2024-05-09T15:02:24.090Z,44.4
2024-05-09T15:03:38.328Z,43.2
2024-05-09T15:04:52.567Z,43.2
2024-05-09T15:06:06.806Z,44.3
2024-05-09T15:07:21.045Z,43.4
2024-05-09T15:08:35.283Z,44.4
2024-05-09T15:09:49.522Z,43.7
2024-05-09T15:11:03.761Z,44.2
2024-05-09T15:12:18.000Z,45.3
2024-05-09T15:13:32.239Z,43.9
2024-05-09T15:14:46.477Z,45.8
2024-05-09T15:16:00.716Z,43.1
2024-05-09T15:17:13.971Z,43.8
2024-05-09T15:18:28.210Z,43.6
2024-05-09T15:19:42.448Z,41.9
2024-05-09T15:20:56.687Z,41.4
2024-05-09T15:23:25.165Z,44.1
2024-05-09T15:24:39.403Z,43.5
2024-05-09T15:25:53.642Z,42.8
2024-05-09T15:27:07.881Z,43.9
2024-05-09T15:28:22.119Z,44.1
2024-05-09T15:29:36.358Z,43.3
2024-05-09T15:30:50.598Z,43.7
2024-05-09T15:32:04.837Z,45
2024-05-09T15:33:18.092Z,43.5
2024-05-09T15:34:32.330Z,42.3
2024-05-09T15:35:46.569Z,41.7
2024-05-09T15:37:00.808Z,42.9
2024-05-09T15:38:15.046Z,42.2
2024-05-09T15:39:29.285Z,42.2
2024-05-09T15:40:43.524Z,41.3
2024-05-09T15:41:57.762Z,41.2
2024-05-09T15:43:12.002Z,41.5
2024-05-09T15:44:26.240Z,40.9
2024-05-09T15:45:40.479Z,41.5
2024-05-09T15:46:54.718Z,42.8
2024-05-09T15:48:08.956Z,42.5
2024-05-09T15:49:22.211Z,45.8
2024-05-09T15:50:36.450Z,42.6
2024-05-09T15:51:50.689Z,42
2024-05-09T15:53:04.927Z,41.4
2024-05-09T15:54:19.167Z,40.7
2024-05-09T15:55:33.405Z,43.4
2024-05-09T15:56:47.644Z,42
2024-05-09T15:58:01.883Z,42
2024-05-09T15:59:16.121Z,42.4
2024-05-09T16:00:30.360Z,41.8
2024-05-09T16:01:44.599Z,42
2024-05-09T16:02:58.837Z,40.8
2024-05-09T16:04:13.076Z,41.5
2024-05-09T16:05:26.331Z,42.5
2024-05-09T16:06:40.570Z,42.3
2024-05-09T16:07:54.809Z,42
2024-05-09T16:09:09.047Z,40.6
2024-05-09T16:10:23.286Z,41.4
2024-05-09T16:11:37.524Z,40.1
2024-05-09T16:12:51.763Z,40.3
2024-05-09T16:15:20.241Z,42.8
2024-05-09T16:16:34.480Z,42.6
2024-05-09T16:17:48.718Z,41.5
2024-05-09T16:19:02.957Z,42.8
2024-05-09T16:20:17.196Z,42.3
2024-05-09T16:22:45.673Z,42.5
2024-05-09T16:23:58.928Z,42.4
2024-05-09T16:25:13.166Z,43.9
2024-05-09T16:26:27.406Z,42.7
2024-05-09T16:27:41.644Z,42.3
2024-05-09T16:28:55.883Z,44.3
2024-05-09T16:30:10.121Z,42.9
2024-05-09T16:31:24.360Z,41.5
2024-05-09T16:32:38.599Z,41.7
2024-05-09T16:33:52.837Z,41.4
2024-05-09T16:35:07.076Z,43.1
2024-05-09T16:36:21.315Z,42.8
2024-05-09T16:37:35.554Z,43.3
2024-05-09T16:38:49.792Z,42.2
2024-05-09T16:40:03.047Z,44.3
2024-05-09T16:41:17.286Z,42.9
2024-05-09T16:42:31.525Z,43
2024-05-09T16:43:45.763Z,43
2024-05-09T16:45:00.002Z,42.7
2024-05-09T16:46:14.241Z,43.1
2024-05-09T16:47:28.480Z,44.3
2024-05-09T16:48:42.719Z,45.1
2024-05-09T16:49:56.957Z,43.9
2024-05-09T16:51:11.196Z,44.7
2024-05-09T16:52:25.435Z,44.9
2024-05-09T16:53:39.673Z,42
2024-05-09T16:54:53.912Z,42.2
2024-05-09T16:56:07.167Z,42.4
2024-05-09T16:57:21.406Z,42.8
2024-05-09T16:58:35.645Z,42.7
2024-05-09T16:59:49.883Z,43.1
2024-05-09T17:01:04.122Z,43.2
2024-05-09T17:02:18.361Z,44.2
2024-05-09T17:03:32.599Z,43.7
2024-05-09T17:04:46.838Z,43.9
2024-05-09T17:06:01.077Z,44.9
2024-05-09T17:07:15.316Z,44.7
2024-05-09T17:08:29.555Z,44.9
2024-05-09T17:09:43.793Z,43.7
2024-05-09T17:10:58.032Z,43.9